メインページ
METAR-TAF:

METAR-TAF

空港 :

デトロイト, ミシガン州, アメリカ合衆国

緯度: 42-24-33N, 経度: 083-00-36W, 海抜: 191m

現時点の気象観測

当レポートは51分前の16:53(UTC)に作成
の風 8kt
気温 25°C
湿度 69%
気圧 1015 hPa
視程: 16.1km
高度1600ftの雲はほとんどない
高度3300ftの千切れ雲あり

METAR: KDET 211653Z 09008KT 10SM FEW016 BKN033 25/19 A2996 RMK AO2 SLP140 T02500194

時間: 13:44 (17:44 UTC)

予報

当レポートは24分前の17:20(UTC)に作成
予報は21日の 18時(UTC)から 22日の 18時(UTC)まで有効
変向風 4kt
視程: 10km
高度2000ftの雲は散在している
高度25000ftの曇り
21日の 18時(UTC)から 21日の 20時(UTC)まで一時的に
高度2500ftの千切れ雲あり
高度6000ftの千切れ雲あり
高度25000ftの曇り
21日の 2100時(UTC)から
北東の風 6kt
視程: 10km
高度4500ftの千切れ雲あり, 積乱雲.
高度6000ftの千切れ雲あり
高度25000ftの千切れ雲あり
近辺で激しい雷雨
22日の 0100時(UTC)から
北東の風 4kt
視程: 10km
高度10000ftの千切れ雲あり
高度25000ftの曇り
22日の 1500時(UTC)から
の風 9kt
視程: 10km
高度25000ftの千切れ雲あり

TAF: KDET 211720Z 2118/2218 VRB04KT P6SM SCT020 OVC250 TEMPO 2118/2120 BKN025 BKN060 OVC250 FM212100 04006KT P6SM VCTS BKN045CB BKN060 BKN250 FM220100 04004KT P6SM BKN100 OVC250 FM221500 35009KT P6SM BKN250

4,000以上の空港の気象観測と天気予報(METAR報とTAF報)

利用可能な観測所は地図上に黄色い丸と赤い丸で示す。

丸の上にカーソルを重ねると観測所名を参照できる。

次にクリックすると気象観測と天気予報を参照できる。

マップの切り替え:黒色「×」印の緑ボタンをクリックして拡大、「-」印の緑ボタンをクリックして縮小、緑色の三角印をクリックして隣りの地図に切り替え


METAR-TAF: